• Join FlightAware (Why Join?)
  • Login
  • US Flag 
02:33PM EDT


 

Airport Tracker/Info


-or-


 

Live Flight TrackerFlight Track Log ✈ ACA831 ✈ 21-Jun-2013 ✈ LSGG / GVA - CYUL

Flight Track Log - Related Links

Times and Time Zones

All times are in EDT time to prevent confusion due to time zone crossing. See the ACA831 flight status page for this flight to view local times or setup timezone preferences in your user account.

Time Position Orientation Groundspeed Altitude Reporting Facility
EDT Latitude Longitude Course Direction KTS MPH feet Rate Location/Type
06:23AM 46.2290 6.1000 216° Southwest 6 7  Level FlightAware
06:23AM 46.2290 6.1010 90° East 7 8 60 Level FlightAware
06:24AM 46.2290 6.1020 90° East 11 13 60 Level FlightAware
06:24AM 46.2300 6.1030 35° Northeast 12 14 60 Level FlightAware
06:25AM 46.2310 6.1040 35° Northeast 9 10 60 Level FlightAware
06:26AM 46.2330 6.1060 35° Northeast 6 7 60 Level FlightAware
06:26AM 46.2330 6.1050 270° West 7 8 60 Level FlightAware
06:27AM 46.2350 6.1070 35° Northeast 11 13 60 Level FlightAware
06:27AM 46.2360 6.1080 35° Northeast 13 15 60 Level FlightAware
06:28AM 46.2360 6.1090 90° East 12 14 60 Level FlightAware
06:28AM 46.2370 6.1100 35° Northeast 14 16 60 Level FlightAware
06:28AM 46.2380 6.1110 35° Northeast 12 14 120 Level FlightAware
06:29AM 46.2390 6.1120 35° Northeast 14 16 120 Level FlightAware
06:29AM 46.2400 6.1150 64° Northeast 14 16 120 Level FlightAware
06:29AM 46.2410 6.1150 360° North 13 15 120 Level FlightAware
06:29AM 46.2410 6.1160 90° East 12 14 120 Level FlightAware
06:30AM 46.2420 6.1170 35° Northeast 9 10 120 Level FlightAware
06:30AM 46.2420 6.1180 90° East 5 6 120 Level FlightAware
06:33AM 46.3616 5.7556 301° West  Level FlightAware Approximate
06:33AM 46.2430 6.1190 301° West 6 7  Level FlightAware
06:33AM 46.2440 6.1200 35° Northeast 180 Level FlightAware
06:34AM 46.2430 6.1200 180° South 180 Level FlightAware
06:35AM 46.2440 6.1200 360° North 4 5 180 Level FlightAware
06:35AM 46.2440 6.1210 90° East 2 2 180 Level FlightAware
06:37AM 46.2450 6.1210 360° North 1 1 240 Level FlightAware
06:39AM 46.3557 5.8460 296° West  Level Estimated
06:40AM 46.4142 5.6996 301° West  Level Estimated
06:40AM 46.2450 6.1220 301° West 6 7  Level FlightAware
06:40AM 46.2460 6.1220 360° North 6 7 780 Level FlightAware
06:40AM 46.2460 6.1210 270° West 5 6 960 Level FlightAware
06:41AM 46.2450 6.1200 215° Southwest 51 59 1,260 Level FlightAware
06:41AM 46.2420 6.1160 223° Southwest 105 121 2,460 Level FlightAware
06:42AM 46.2280 6.0950 226° Southwest 169 194 1,700 3,240 Climbing FlightAware
06:42AM 46.2160 6.0790 223° Southwest 177 204 2,700 2,820 Climbing FlightAware
06:42AM 46.2050 6.0620 227° Southwest 182 209 3,600 2,640 Climbing FlightAware
06:43AM 46.1860 6.0340 226° Southwest 185 213 4,900 2,580 Climbing FlightAware
06:43AM 46.1680 6.0070 226° Southwest 186 214 6,200 2,460 Climbing FlightAware
06:44AM 46.1540 5.9850 227° Southwest 190 219 7,200 1,740 Climbing FlightAware
06:44AM 46.1470 5.9610 247° West 223 257 7,500 960 Climbing FlightAware
06:44AM 46.1500 5.9440 284° West 244 281 7,700 1,200 Climbing FlightAware
06:45AM 46.1560 5.9330 308° West 256 295 7,900 1,560 Climbing FlightAware
06:45AM 46.1800 5.9160 334° Northwest 275 316 8,500 2,040 Climbing FlightAware
06:45AM 46.2120 5.9220 North 299 344 9,500 2,700 Climbing FlightAware
06:46AM 46.2330 5.9240 North 289 333 10,300 3,000 Climbing FlightAware
06:46AM 46.2550 5.9160 346° North 297 342 11,000 1,680 Climbing FlightAware
06:47AM 46.3160 5.8720 334° Northwest 365 420 12,000 1,380 Climbing FlightAware
06:47AM 46.3690 5.8310 332° Northwest 397 457 12,900 2,880 Climbing FlightAware
06:48AM 46.4410 5.7640 327° Northwest 390 449 15,900 3,360 Climbing FlightAware
06:49AM 46.5010 5.6990 323° Northwest 393 452 17,800 2,520 Climbing FlightAware
06:49AM 46.5610 5.6330 323° Northwest 412 474 19,400 2,160 Climbing FlightAware
06:50AM 46.6670 5.5180 323° Northwest 437 503 21,700 2,040 Climbing FlightAware
06:51AM 46.7330 5.4330 319° Northwest 437 503 23,300 1,980 Climbing FlightAware
06:52AM 46.7830 5.3430 309° West 443 510 24,600 1,740 Climbing FlightAware
06:53AM 46.8410 5.2410 310° West 455 524 25,900 1,920 Climbing FlightAware
06:53AM 46.9050 5.1290 310° West 462 532 27,400 1,800 Climbing FlightAware
06:54AM 46.9620 5.0300 310° West 473 544 28,500 1,980 Climbing FlightAware
06:55AM 47.0140 4.9390 310° West 467 537 30,000 1,980 Climbing FlightAware
06:55AM 47.0720 4.8380 310° West 464 534 31,300 1,320 Climbing FlightAware
06:56AM 47.1430 4.7250 313° West 476 548 32,000 480 Climbing FlightAware
06:57AM 47.2030 4.6560 322° Northwest 480 552 32,000  Level FlightAware
06:57AM 47.3020 4.5630 328° Northwest 472 543 32,000  Level FlightAware
06:58AM 47.3830 4.4880 328° Northwest 472 543 32,000  Level FlightAware
06:59AM 47.4480 4.4260 327° Northwest 472 543 32,000  Level FlightAware
07:00AM 47.5290 4.3460 326° Northwest 473 544 32,000  Level FlightAware
07:01AM 47.6300 4.2470 327° Northwest 467 537 32,000  Level FlightAware
07:01AM 47.7040 4.1740 326° Northwest 473 544 32,000  Level FlightAware
07:02AM 47.7830 4.0960 326° Northwest 474 545 32,000  Level FlightAware
07:03AM 47.8630 4.0160 326° Northwest 475 547 32,000  Level FlightAware
07:03AM 47.9390 3.9400 326° Northwest 476 548 32,000  Level FlightAware
07:04AM 48.0170 3.8610 326° Northwest 478 550 32,000  Level FlightAware
07:05AM 48.1000 3.7770 326° Northwest 480 552 32,000  Level FlightAware
07:05AM 48.1730 3.7030 326° Northwest 480 552 32,000  Level FlightAware
07:06AM 48.2540 3.6200 326° Northwest 480 552 32,000  Level FlightAware
07:07AM 48.3290 3.5500 328° Northwest 484 557 32,000  Level FlightAware
07:08AM 48.4050 3.4810 329° Northwest 482 555 32,000  Level FlightAware
07:08AM 48.4910 3.4020 329° Northwest 480 552 32,000  Level FlightAware
07:09AM 48.5950 3.3030 328° Northwest 476 548 32,000  Level FlightAware
07:10AM 48.6720 3.2310 328° Northwest 473 544 32,000  Level FlightAware
07:11AM 48.7000 3.2040 328° Northwest 471 542 32,000  Level FlightAware
07:12AM 48.9000 3.0120 328° Northwest 467 537 32,000  Level FlightAware
07:13AM 48.9710 2.9440 328° Northwest 466 536 32,000  Level FlightAware
07:13AM 49.0530 2.8660 328° Northwest 464 534 32,000  Level FlightAware
07:14AM 49.1260 2.7960 328° Northwest 462 532 32,000  Level FlightAware
07:15AM 49.1940 2.7300 328° Northwest 461 531 32,000  Level FlightAware
07:15AM 49.2760 2.6510 328° Northwest 459 528 32,000 -120 Level FlightAware
07:16AM 49.3446 2.5848 328° Northwest 1 1 31,900  Descending FlightAware UK
07:16AM 49.3800 2.5480 328° Northwest 457 526 32,000 60 Climbing FlightAware
07:17AM 49.4430 2.4820 326° Northwest 454 522 32,000  Level FlightAware
07:18AM 49.5240 2.4010 327° Northwest 452 520 32,000  Level FlightAware
07:18AM 49.6050 2.3440 335° Northwest 464 534 32,000  Level FlightAware
07:19AM 49.6930 2.3060 344° North 461 531 32,000  Level FlightAware
07:20AM 49.7680 2.2700 343° North 461 531 32,000  Level FlightAware
07:21AM 49.7800 2.2650 345° North 454 522 32,000  Level FlightAware
07:22AM 49.9860 2.1810 345° North 464 534 32,000  Level FlightAware
07:22AM 50.0660 2.1480 345° North 463 533 32,000  Level FlightAware
07:23AM 50.1590 2.1110 346° North 464 534 32,000  Level FlightAware
07:24AM 50.2370 2.0780 345° North 462 532 32,000  Level FlightAware
07:24AM 50.3320 2.0390 345° North 463 533 32,000  Level FlightAware
07:25AM 50.4060 1.9770 345° North 455 524 32,000 -180 Level FlightAware
07:25AM 50.4103 1.9770 345° North 456 525 31,900 -180 Descending FlightAware UK
07:26AM 50.4672 1.8995 345° North 454 522 31,900 120 Level FlightAware UK
07:26AM 50.4710 1.8900 345° North 454 522 32,000 120 Climbing FlightAware
07:26AM 50.5410 1.7930 319° Northwest 454 522 32,000  Level FlightAware
07:27AM 50.6030 1.7110 320° Northwest 454 522 32,000 -120 Level FlightAware
07:28AM 50.6712 1.6367 320° Northwest 460 529 31,900  Descending FlightAware UK
07:28AM 50.6830 1.6180 320° Northwest 455 524 32,000 120 Climbing FlightAware
07:29AM 50.7520 1.5380 324° Northwest 454 522 32,000  Level FlightAware
07:29AM 50.8220 1.4540 323° Northwest 453 521 32,000  Level FlightAware
07:30AM 50.8743 1.3922 323° Northwest 453 521 32,000  Level FlightAware ADS-B
07:30AM 50.9360 1.3181 323° Northwest 455 524 32,000  Level FlightAware ADS-B
07:31AM 50.9889 1.2545 323° Northwest 455 524 32,000  Level FlightAware ADS-B
07:32AM 51.0531 1.1753 322° Northwest 454 522 32,000  Level FlightAware ADS-B
07:32AM 51.1029 1.1132 322° Northwest 454 522 32,000  Level FlightAware ADS-B
07:33AM 51.1559 1.0465 322° Northwest 455 524 32,000  Level FlightAware ADS-B
07:33AM 51.2059 0.9828 321° Northwest 457 526 32,000  Level FlightAware ADS-B
07:34AM 51.2551 0.9185 321° Northwest 457 526 32,000  Level FlightAware ADS-B
07:34AM 51.3051 0.8529 321° Northwest 457 526 32,000  Level FlightAware ADS-B
07:35AM 51.3592 0.7816 321° Northwest 459 528 32,000  Level FlightAware ADS-B
07:35AM 51.4108 0.7122 320° Northwest 460 529 32,000  Level FlightAware ADS-B
07:36AM 51.4628 0.6408 319° Northwest 462 532 32,000  Level FlightAware ADS-B
07:36AM 51.5143 0.5783 323° Northwest 460 529 32,000  Level FlightAware ADS-B
07:37AM 51.5693 0.5247 329° Northwest 456 525 32,000  Level FlightAware ADS-B
07:37AM 51.6242 0.4729 330° Northwest 457 526 32,000  Level FlightAware ADS-B
07:38AM 51.6797 0.4204 330° Northwest 460 529 32,000  Level FlightAware ADS-B
07:38AM 51.7365 0.3671 330° Northwest 463 533 32,000  Level FlightAware ADS-B
07:39AM 51.7938 0.3133 330° Northwest 466 536 32,000  Level FlightAware ADS-B
07:39AM 51.8506 0.2602 330° Northwest 467 537 32,000  Level FlightAware ADS-B
07:40AM 51.9070 0.2070 330° Northwest 470 541 32,000  Level FlightAware ADS-B
07:40AM 51.9646 0.1522 330° Northwest 471 542 32,000  Level FlightAware ADS-B
07:41AM 52.0216 0.0977 329° Northwest 472 543 32,000  Level FlightAware ADS-B
07:41AM 52.0785 0.0434 330° Northwest 474 545 32,000  Level FlightAware ADS-B
07:42AM 52.1368 -0.0127 329° Northwest 474 545 32,000  Level FlightAware ADS-B
07:42AM 52.1934 -0.0666 330° Northwest 474 545 32,000  Level FlightAware ADS-B
07:43AM 52.2504 -0.1208 330° Northwest 474 545 32,000  Level FlightAware ADS-B
07:43AM 52.3074 -0.1755 330° Northwest 474 545 32,000  Level FlightAware ADS-B
07:44AM 52.3655 -0.2311 330° Northwest 472 543 32,000  Level FlightAware ADS-B
07:44AM 52.4236 -0.2874 329° Northwest 472 543 32,000  Level FlightAware ADS-B
07:45AM 52.4832 -0.3459 329° Northwest 470 541 32,000  Level FlightAware ADS-B
07:45AM 52.5392 -0.4015 329° Northwest 468 539 32,000  Level FlightAware ADS-B
07:46AM 52.5965 -0.4584 329° Northwest 468 539 32,000  Level FlightAware ADS-B
07:46AM 52.6528 -0.5150 329° Northwest 467 537 32,000  Level FlightAware ADS-B
07:47AM 52.7143 -0.5765 329° Northwest 467 537 32,000  Level FlightAware ADS-B
07:48AM 52.8080 -0.6625 329° Northwest 446 513 32,000  Level FlightAware UK
07:48AM 52.8040 -0.6660 329° Northwest 467 537 32,000  Level FlightAware
07:48AM 52.8595 -0.7198 330° Northwest 468 539 32,000  Level FlightAware ADS-B
07:49AM 52.9435 -0.7895 330° Northwest 448 516 32,000  Level FlightAware UK
07:49AM 52.9650 -0.8170 330° Northwest 468 539 32,000  Level FlightAware
07:50AM 53.0450 -0.8910 331° Northwest 470 541 32,000  Level FlightAware
07:51AM 53.1476 -0.9803 331° Northwest 448 516 32,000  Level FlightAware UK
07:51AM 53.1250 -0.9670 331° Northwest 470 541 32,000  Level FlightAware
07:52AM 53.2552 -1.0904 330° Northwest 473 544 32,000  Level FlightAware ADS-B
07:52AM 53.3254 -1.1574 330° Northwest 473 544 32,000  Level FlightAware ADS-B
07:53AM 53.4188 -1.2468 330° Northwest 475 547 32,000  Level FlightAware ADS-B
07:54AM 53.4775 -1.3029 330° Northwest 475 547 32,000  Level FlightAware ADS-B
07:54AM 53.5559 -1.3785 330° Northwest 475 547 32,000 -120 Level FlightAware ADS-B
07:55AM 53.6489 -1.4610 330° Northwest 452 520 31,900  Descending FlightAware UK
07:55AM 53.6612 -1.4803 330° Northwest 475 547 32,000 120 Climbing FlightAware ADS-B
07:56AM 53.7401 -1.5499 330° Northwest 450 518 32,000  Level FlightAware UK
07:56AM 53.7520 -1.5687 330° Northwest 474 545 32,000  Level FlightAware ADS-B
07:57AM 53.8430 -1.6580 330° Northwest 474 545 32,000  Level FlightAware
07:58AM 53.9080 -1.7220 330° Northwest 474 545 32,000  Level FlightAware
07:58AM 53.9890 -1.8010 330° Northwest 474 545 32,000  Level FlightAware
07:59AM 54.0880 -1.8990 330° Northwest 473 544 32,000  Level FlightAware
08:00AM 54.1630 -1.9730 330° Northwest 473 544 32,000 180 Level FlightAware
08:01AM 54.2670 -2.0770 330° Northwest 468 539 32,300 360 Climbing FlightAware
08:01AM 54.3430 -2.1530 330° Northwest 456 525 32,600 480 Climbing FlightAware
08:02AM 54.4043 -2.2103 330° Northwest 448 516 32,900 540 Climbing FlightAware UK
08:02AM 54.4170 -2.2290 330° Northwest 446 513 33,000 60 Climbing FlightAware
08:03AM 54.4960 -2.3080 330° Northwest 443 510 33,000  Level FlightAware
08:03AM 54.5580 -2.3720 329° Northwest 438 504 33,000  Level FlightAware
08:04AM 54.6340 -2.4490 330° Northwest 439 505 33,000  Level FlightAware
08:05AM 54.7198 -2.5317 330° Northwest 452 520 33,000  Level FlightAware UK
08:05AM 54.7120 -2.5280 330° Northwest 441 507 33,000  Level FlightAware
08:05AM 54.7826 -2.5965 330° Northwest 452 520 33,000  Level FlightAware UK
08:05AM 54.7780 -2.5950 330° Northwest 441 507 33,000  Level FlightAware
08:06AM 54.8457 -2.6617 330° Northwest 454 522 33,000  Level FlightAware UK
08:06AM 54.8610 -2.6820 330° Northwest 441 507 33,000  Level FlightAware
08:07AM 54.9280 -2.7600 326° Northwest 441 507 33,000  Level FlightAware
08:08AM 54.9920 -2.8780 313° West 437 503 33,000  Level FlightAware
08:08AM 55.0310 -2.9580 310° West 428 493 33,000 -120 Level FlightAware
08:09AM 55.0865 -3.0675 310° West 440 506 32,900  Descending FlightAware UK
08:09AM 55.0910 -3.0840 310° West 416 479 33,000  Climbing FlightAware
08:10AM 55.1456 -3.1931 310° West 438 504 32,900  Descending FlightAware UK
08:10AM 55.1430 -3.1950 310° West 417 480 33,000 120 Climbing FlightAware
08:10AM 55.1970 -3.3100 309° West 422 486 33,000  Level FlightAware
08:11AM 55.2500 -3.4220 310° West 418 481 33,000  Level FlightAware
08:12AM 55.2980 -3.5230 310° West 415 478 33,000  Level FlightAware
08:12AM 55.3533 -3.6351 310° West 452 520 33,000  Level FlightAware UK
08:13AM 55.3500 -3.6330 310° West 412 474 33,000  Level FlightAware
08:13AM 55.4050 -3.7490 310° West 412 474 33,000  Level FlightAware
08:14AM 55.4520 -3.8490 310° West 412 474 33,000  Level FlightAware
08:15AM 55.5030 -3.9560 310° West 411 473 33,000 -120 Level FlightAware
08:15AM 55.5645 -4.0833 310° West 444 511 32,900  Descending FlightAware UK
08:16AM 55.5770 -4.1190 310° West 410 472 33,000  Climbing FlightAware
08:16AM 55.6434 -4.2538 310° West 448 516 32,900  Descending FlightAware UK
08:17AM 55.6420 -4.2560 310° West 408 470 33,000 120 Climbing FlightAware
08:17AM 55.6931 -4.3617 310° West 452 520 33,000  Level FlightAware UK
08:17AM 55.6880 -4.3540 310° West 407 468 33,000  Level FlightAware
08:18AM 55.7600 -4.5130 309° West 406 467 33,000  Level FlightAware
08:19AM 55.8050 -4.6120 309° West 405 466 33,000  Level FlightAware
08:20AM 55.8520 -4.7150 309° West 404 465 33,000  Level FlightAware
08:21AM 55.9060 -4.8340 309° West 399 459 33,000  Level FlightAware
08:21AM 55.9877 -5.0136 309° West 448 516 33,000  Level FlightAware UK
08:21AM 55.9870 -5.0150 309° West 398 458 33,000  Level FlightAware
08:22AM 56.0293 -5.1068 309° West 448 516 33,000  Level FlightAware UK
08:22AM 56.0330 -5.1180 309° West 398 458 33,000  Level FlightAware
08:23AM 56.0850 -5.2350 309° West 398 458 33,000  Level FlightAware
08:24AM 56.1320 -5.3420 309° West 399 459 33,000 -180 Level FlightAware
08:24AM 56.1398 -5.3572 309° West 448 516 32,900  Descending FlightAware UK
08:24AM 56.1743 -5.4359 309° West 448 516 33,000 120 Climbing FlightAware UK
08:24AM 56.1780 -5.4460 309° West 399 459 33,000  Level FlightAware
08:25AM 56.2260 -5.5550 308° West 400 460 33,000  Level FlightAware
08:26AM 56.2780 -5.6720 308° West 399 459 33,000  Level FlightAware
08:26AM 56.2856 -5.6868 308° West 454 522 33,000 -240 Level FlightAware UK
08:26AM 56.3204 -5.7653 308° West 456 525 32,900  Descending FlightAware UK
08:26AM 56.3300 -5.7880 308° West 399 459 33,000 60 Climbing FlightAware
08:27AM 56.3760 -5.8920 309° West 397 457 33,000 420 Level FlightAware
08:28AM 56.4318 -6.0158 309° West 456 525 33,600 780 Climbing FlightAware UK
08:28AM 56.4250 -6.0010 309° West 400 460 33,600 780 Level FlightAware
08:28AM 56.4663 -6.0947 309° West 452 520 34,000 780 Climbing FlightAware UK
08:29AM 56.4880 -6.1430 309° West 394 453 34,300 720 Climbing FlightAware
08:29AM 56.5360 -6.2490 309° West 390 449 34,800 660 Climbing FlightAware
08:29AM 56.5420 -6.2612 309° West 442 509 34,800 720 Level FlightAware UK
08:30AM 56.5764 -6.3364 309° West 440 506 35,200 840 Climbing FlightAware UK
08:31AM 56.6312 -6.4588 309° West 444 511 35,900 480 Climbing FlightAware UK
08:31AM 56.6170 -6.4260 309° West 391 450 35,800 60 Descending FlightAware
08:32AM 56.6880 -6.6000 307° West 403 464 36,000 120 Climbing FlightAware
08:32AM 56.7280 -6.6970 307° West 402 463 36,000  Level FlightAware
08:33AM 56.7790 -6.8200 307° West 400 460 36,000  Level FlightAware
08:34AM 56.8280 -6.9380 307° West 400 460 36,000  Level FlightAware
08:34AM 56.8720 -7.0480 306° West 400 460 36,000  Level FlightAware
08:35AM 56.9153 -7.1548 306° West 444 511 36,000  Level FlightAware UK
08:35AM 56.9481 -7.2358 307° West 444 511 36,000  Level FlightAware UK
08:35AM 56.9470 -7.2320 307° West 395 455 36,000  Level FlightAware
08:36AM 56.9840 -7.3230 307° West 395 455 36,000 -180 Level FlightAware
08:36AM 56.9874 -7.3334 307° West 442 509 35,900  Descending FlightAware UK
08:37AM 57.0205 -7.4144 307° West 442 509 36,000 120 Climbing FlightAware UK
08:37AM 57.0380 -7.4550 307° West 400 460 36,000  Level FlightAware
08:37AM 57.0670 -7.5230 307° West 401 461 36,000  Level FlightAware
08:38AM 57.0877 -7.5754 307° West 446 513 36,000  Level FlightAware UK
08:38AM 57.1275 -7.6724 307° West 446 513 36,000  Level FlightAware UK
08:38AM 57.1420 -7.7080 307° West 396 456 36,000  Level FlightAware
08:39AM 57.1929 -7.8370 307° West 446 513 36,000  Level FlightAware UK
08:39AM 57.1950 -7.8400 307° West 397 457 36,000  Level FlightAware
08:40AM 57.2321 -7.9361 307° West 444 511 36,000  Level FlightAware UK
08:40AM 57.2380 -7.9480 307° West 397 457 36,000  Level FlightAware
08:41AM 57.2870 -8.0750 306° West 398 458 36,000  Level FlightAware
08:41AM 57.3289 -8.1870 306° West 446 513 36,000  Level FlightAware UK
08:41AM 57.3290 -8.1870 306° West 403 464 36,000  Level FlightAware
08:42AM 57.3720 -8.3020 305° West 402 463 36,000  Level FlightAware
08:43AM 57.4150 -8.4230 303° West 405 466 36,000  Level FlightAware
08:43AM 57.4644 -8.5493 303° West 460 529 36,000  Level FlightAware UK
08:44AM 57.4800 -8.5890 303° West 416 479 36,000  Level FlightAware
08:44AM 57.5170 -8.6860 305° West 416 479 36,000  Level FlightAware
08:45AM 57.5659 -8.8126 305° West 470 541 36,000  Level FlightAware UK
08:45AM 57.5740 -8.8320 305° West 419 482 36,000  Level FlightAware
08:46AM 57.6260 -8.9680 306° West 423 487 36,000  Level FlightAware
08:46AM 57.6650 -9.0710 305° West 430 495 36,000  Level FlightAware
08:47AM 57.7180 -9.2170 304° West 432 497 36,000  Level FlightAware
08:48AM 57.7730 -9.3720 304° West 432 497 36,000  Level FlightAware
08:49AM 57.8080 -9.4740 303° West 432 497 36,000  Level FlightAware
08:50AM 57.8850 -9.6790 305° West 433 498 36,000  Level FlightAware
08:51AM 57.9470 -9.8490 305° West 433 498 36,000  Level FlightAware
08:51AM 57.9850 -9.9560 304° West 433 498 36,000  Level FlightAware
08:52AM 58.0320 -10.0890 304° West 433 498 36,000  Level FlightAware
08:53AM 58.0740 -10.2900 292° West 429 494 36,000  Level FlightAware
08:53AM 58.0980 -10.3910 294° West 430 495 36,000  Level FlightAware
08:54AM 58.1300 -10.5250 294° West 430 495 36,000  Level FlightAware
08:55AM 58.2090 -10.8430 295° West 427 491 36,000  Level FlightAware
08:56AM 58.2400 -10.9700 295° West 427 491 36,000  Level FlightAware
08:57AM 58.2790 -11.1320 295° West 427 491 36,000  Level FlightAware
08:58AM 58.3130 -11.2740 295° West 427 491 36,000  Level FlightAware
08:58AM 58.3510 -11.4380 294° West 425 489 36,000  Level FlightAware
08:59AM 58.3810 -11.5640 294° West 429 494 36,000  Level FlightAware
09:00AM 58.4250 -11.7540 294° West 430 495 36,000  Level FlightAware
09:01AM 58.4600 -11.9080 294° West 429 494 36,000  Level FlightAware
09:01AM 58.4910 -12.0480 293° West 429 494 36,000  Level FlightAware
09:02AM 58.5200 -12.1860 292° West 429 494 36,000  Level FlightAware
09:03AM 58.5510 -12.3300 292° West 429 494 36,000  Level FlightAware
09:04AM 58.5750 -12.4440 292° West 429 494 36,000  Level FlightAware
09:05AM 58.6150 -12.6360 292° West 429 494 36,000  Level FlightAware
09:06AM 58.6490 -12.7980 292° West 429 494 36,000  Level FlightAware
09:06AM 58.6730 -12.9100 292° West 429 494 36,000  Level FlightAware
09:07AM 58.7070 -13.0750 292° West 429 494 36,000  Level FlightAware
09:08AM 58.7380 -13.2200 292° West 429 494 36,000  Level FlightAware
09:08AM 58.7600 -13.3280 291° West 429 494 36,000  Level FlightAware
09:09AM 58.7900 -13.4700 292° West 429 494 36,000  Level FlightAware
09:10AM 58.8140 -13.5850 292° West 429 494 36,000  Level FlightAware
09:11AM 58.8410 -13.7120 292° West 429 494 36,000  Level FlightAware
09:13AM 58.8656 -14.1435 276° West  Level Estimated
09:14AM 58.8779 -14.3689 276° West  Level Estimated
09:15AM 58.8898 -14.5944 276° West  Level Estimated
09:16AM 58.9013 -14.8201 276° West  Level Estimated
09:17AM 58.9124 -15.0459 276° West  Level Estimated
09:18AM 58.9231 -15.2719 275° West  Level Estimated
09:19AM 58.9334 -15.4980 275° West  Level Estimated
09:20AM 58.9434 -15.7242 275° West  Level Estimated
09:21AM 58.9529 -15.9506 275° West  Level Estimated
09:22AM 58.9620 -16.1771 275° West  Level Estimated
09:23AM 58.9707 -16.4037 274° West  Level Estimated
09:24AM 58.9791 -16.6304 274° West  Level Estimated
09:25AM 58.9870 -16.8573 274° West  Level Estimated
09:26AM 58.9946 -17.0842 274° West  Level Estimated
09:27AM 59.0017 -17.3112 274° West  Level Estimated
09:28AM 59.0085 -17.5383 273° West  Level Estimated
09:29AM 59.0148 -17.7656 273° West  Level Estimated
09:30AM 59.0208 -17.9928 273° West  Level Estimated
09:31AM 59.0263 -18.2202 273° West  Level Estimated
09:32AM 59.0315 -18.4476 273° West  Level Estimated
09:33AM 59.0363 -18.6751 272° West  Level Estimated
09:34AM 59.0406 -18.9027 272° West  Level Estimated
09:35AM 59.0446 -19.1303 272° West  Level Estimated
09:36AM 59.0481 -19.3580 272° West  Level Estimated
09:37AM 59.0513 -19.5857 272° West  Level Estimated
09:38AM 59.0541 -19.8134 271° West  Level Estimated
09:38AM 60.0000 -20.0000 286° West 451 519 36,000  Level ETMS Enhanced Traffic Management System
09:39AM 59.0565 -20.0412 271° West  Level Estimated
09:40AM 59.0585 -20.2811 271° West  Level Estimated
09:41AM 59.0601 -20.5210 271° West  Level Estimated
09:42AM 59.0613 -20.7609 271° West  Level Estimated
09:43AM 59.0620 -21.0008 270° West  Level Estimated
09:44AM 60.2592 -21.9474 284° West 451 519 36,000  Level FlightAware Transoceanic
09:45AM 60.2896 -22.1930 284° West 451 519 36,000  Level FlightAware Transoceanic
09:46AM 60.3195 -22.4390 284° West 451 519 36,000  Level FlightAware Transoceanic
09:47AM 60.3490 -22.6854 283° West 451 519 36,000  Level FlightAware Transoceanic
09:48AM 60.3780 -22.9323 283° West 451 519 36,000  Level FlightAware Transoceanic
09:49AM 60.4066 -23.1796 283° West 451 519 36,000  Level FlightAware Transoceanic
09:50AM 60.4346 -23.4274 283° West 451 519 36,000  Level FlightAware Transoceanic
09:51AM 60.4623 -23.6756 283° West 451 519 36,000  Level FlightAware Transoceanic
09:52AM 60.4894 -23.9242 282° West 451 519 36,000  Level FlightAware Transoceanic
09:53AM 60.5162 -24.1732 282° West 451 519 36,000  Level FlightAware Transoceanic
09:54AM 60.5424 -24.4226 282° West 451 519 36,000  Level FlightAware Transoceanic
09:55AM 60.5682 -24.6725 282° West 451 519 36,000  Level FlightAware Transoceanic
09:56AM 60.5935 -24.9227 282° West 451 519 36,000  Level FlightAware Transoceanic
09:57AM 60.6184 -25.1733 281° West 451 519 36,000  Level FlightAware Transoceanic
09:58AM 60.6427 -25.4243 281° West 451 519 36,000  Level FlightAware Transoceanic
09:58AM 60.6370 -25.3840 281° West 453 521 36,000  Level FlightAware
09:59AM 60.6530 -25.5450 282° West 453 521 36,000  Level FlightAware
10:00AM 60.6720 -25.7370 282° West 453 521 36,000  Level FlightAware
10:00AM 60.6820 -25.8460 281° West 453 521 36,000  Level FlightAware
10:01AM 60.7000 -26.0610 280° West 453 521 36,000  Level FlightAware
10:02AM 60.7080 -26.1470 281° West 453 521 36,000  Level FlightAware
10:02AM 60.7200 -26.2870 280° West 453 521 36,000  Level FlightAware
10:03AM 60.7340 -26.4520 280° West 453 521 36,000  Level FlightAware
10:04AM 60.7460 -26.5880 280° West 453 521 36,000  Level FlightAware
10:04AM 60.7610 -26.7680 280° West 453 521 36,000  Level FlightAware
10:05AM 60.7760 -26.9370 280° West 453 521 36,000  Level FlightAware
10:06AM 60.7910 -27.1160 280° West 453 521 36,000  Level FlightAware
10:07AM 60.8030 -27.2500 280° West 453 521 36,000  Level FlightAware
10:08AM 60.8170 -27.4220 280° West 453 521 36,000  Level FlightAware
10:08AM 60.8290 -27.5630 280° West 453 521 36,000  Level FlightAware
10:09AM 60.8410 -27.6920 281° West 453 521 36,000  Level FlightAware
10:10AM 60.8560 -27.8690 280° West 453 521 36,000  Level FlightAware
10:12AM 60.8918 -28.3534 279° West  Level FlightAware Approximate
10:13AM 60.9096 -28.6044 278° West  Level FlightAware Approximate
10:14AM 60.9270 -28.8556 278° West  Level FlightAware Approximate
10:14AM 60.9570 -29.2370 278° West 446 513 36,000  Level FlightAware
10:14AM 60.9650 -29.3570 278° West 446 513 36,000  Level FlightAware
10:15AM 60.9780 -29.5670 277° West 445 512 36,000  Level FlightAware
10:16AM 60.9870 -29.7140 277° West 445 512 36,000  Level FlightAware
10:16AM 60.9970 -29.8790 277° West 445 512 36,000  Level FlightAware
10:17AM 61.0050 -30.0150 277° West 445 512 36,000  Level FlightAware
10:18AM 61.0150 -30.1900 277° West 445 512 36,000  Level FlightAware
10:18AM 61.0230 -30.3270 277° West 445 512 36,000  Level FlightAware
10:19AM 61.0000 -30.0000 263° West 451 519 36,000  Level ETMS Enhanced Traffic Management System
10:19AM 61.0330 -30.4950 277° West 445 512 36,000  Level FlightAware
10:20AM 61.0410 -30.6280 277° West 445 512 36,000  Level FlightAware
10:20AM 61.0480 -30.7350 278° West 445 512 36,000  Level FlightAware
10:21AM 61.0550 -30.8650 276° West 445 512 36,000  Level FlightAware
10:22AM 61.0650 -31.0300 277° West 445 512 36,000  Level FlightAware
10:23AM 61.0780 -31.2420 277° West 445 512 36,000  Level FlightAware
10:23AM 61.0820 -31.3210 276° West 445 512 36,000  Level FlightAware
10:24AM 61.0930 -31.4970 263° West 445 512 36,000  Level FlightAware
10:27AM 61.0193 -32.1361 257° West  Level Estimated
10:28AM 60.9900 -32.3827 256° West  Level Estimated
10:29AM 60.9602 -32.6288 256° West  Level Estimated
10:30AM 60.9300 -32.8745 256° West  Level Estimated
10:31AM 60.8993 -33.1197 256° West  Level Estimated
10:32AM 60.8682 -33.3644 255° West  Level Estimated
10:33AM 60.8366 -33.6087 255° West  Level Estimated
10:34AM 60.8046 -33.8524 255° West  Level Estimated
10:35AM 60.7722 -34.0957 255° West  Level Estimated
10:36AM 60.7393 -34.3385 255° West  Level Estimated
10:37AM 60.7060 -34.5808 254° West  Level Estimated
10:38AM 60.6722 -34.8225 254° West  Level Estimated
10:39AM 60.6380 -35.0638 254° West  Level Estimated
10:40AM 60.6034 -35.3046 254° West  Level Estimated
10:41AM 60.5683 -35.5448 254° West  Level Estimated
10:42AM 60.5328 -35.7845 253° West  Level Estimated
10:43AM 60.4969 -36.0237 253° West  Level Estimated
10:44AM 60.4605 -36.2623 253° West  Level Estimated
10:45AM 60.4238 -36.5004 253° West  Level Estimated
10:46AM 60.3866 -36.7380 253° West  Level Estimated
10:47AM 60.3490 -36.9750 252° West  Level Estimated
10:48AM 60.3109 -37.2114 252° West  Level Estimated
10:49AM 60.2725 -37.4474 252° West  Level Estimated
10:50AM 60.2336 -37.6827 252° West  Level Estimated
10:51AM 60.1943 -37.9175 251° West  Level Estimated
10:52AM 60.1546 -38.1518 251° West  Level Estimated
10:53AM 60.1145 -38.3854 251° West  Level Estimated
10:54AM 60.0740 -38.6185 251° West  Level Estimated
10:55AM 60.0330 -38.8511 251° West  Level Estimated
10:56AM 59.9917 -39.0830 250° West  Level Estimated
10:57AM 59.9499 -39.3144 250° West  Level Estimated
10:58AM 59.9078 -39.5451 250° West  Level Estimated
10:59AM 59.8652 -39.7753 250° West  Level Estimated
11:00AM 59.8223 -40.0049 250° West  Level Estimated
11:01AM 59.7789 -40.2339 249° West  Level Estimated
11:01AM 60.0000 -40.0000 263° West 442 509 36,000  Level ETMS Enhanced Traffic Management System
11:02AM 59.7352 -40.4623 249° West  Level Estimated
11:03AM 59.6910 -40.6901 249° West  Level Estimated
11:04AM 59.6465 -40.9173 249° West  Level Estimated
11:05AM 59.6015 -41.1439 249° West  Level Estimated
11:06AM 59.5562 -41.3699 248° West  Level Estimated
11:07AM 59.5105 -41.5953 248° West  Level Estimated
11:08AM 59.8317 -42.4316 261° West 442 509 36,000  Level FlightAware Transoceanic
11:09AM 59.8124 -42.6734 261° West 442 509 36,000  Level FlightAware Transoceanic
11:10AM 59.7927 -42.9148 261° West 442 509 36,000  Level FlightAware Transoceanic
11:11AM 59.7725 -43.1560 260° West 442 509 36,000  Level FlightAware Transoceanic
11:12AM 59.7519 -43.3969 260° West 442 509 36,000  Level FlightAware Transoceanic
11:13AM 59.7309 -43.6374 260° West 442 509 36,000  Level FlightAware Transoceanic
11:14AM 59.7094 -43.8777 260° West 442 509 36,000  Level FlightAware Transoceanic
11:15AM 59.6875 -44.1177 260° West 442 509 36,000  Level FlightAware Transoceanic
11:16AM 59.6651 -44.3573 259° West 442 509 36,000  Level FlightAware Transoceanic
11:17AM 59.6423 -44.5966 259° West 442 509 36,000  Level FlightAware Transoceanic
11:18AM 59.6191 -44.8356 259° West 442 509 36,000  Level FlightAware Transoceanic
11:19AM 59.5954 -45.0743 259° West 442 509 36,000  Level FlightAware Transoceanic
11:20AM 59.5713 -45.3126 259° West 442 509 36,000  Level FlightAware Transoceanic
11:21AM 59.5468 -45.5505 258° West 442 509 36,000  Level FlightAware Transoceanic
11:22AM 59.5218 -45.7882 258° West 442 509 36,000  Level FlightAware Transoceanic
11:23AM 59.4964 -46.0255 258° West 442 509 36,000  Level FlightAware Transoceanic
11:24AM 59.4706 -46.2623 258° West 442 509 36,000  Level FlightAware Transoceanic
11:25AM 59.4444 -46.4989 258° West 442 509 36,000  Level FlightAware Transoceanic
11:26AM 59.4177 -46.7351 257° West 442 509 36,000  Level FlightAware Transoceanic
11:27AM 59.3906 -46.9709 257° West 442 509 36,000  Level FlightAware Transoceanic
11:28AM 59.3630 -47.2063 257° West 442 509 36,000  Level FlightAware Transoceanic
11:29AM 59.3351 -47.4413 257° West 442 509 36,000  Level FlightAware Transoceanic
11:30AM 59.3067 -47.6760 257° West 442 509 36,000  Level FlightAware Transoceanic
11:31AM 59.2779 -47.9102 256° West 442 509 36,000  Level FlightAware Transoceanic
11:32AM 59.2487 -48.1441 256° West 442 509 36,000  Level FlightAware Transoceanic
11:33AM 59.2191 -48.3775 256° West 442 509 36,000  Level FlightAware Transoceanic
11:34AM 59.1890 -48.6106 256° West 442 509 36,000  Level FlightAware Transoceanic
11:35AM 59.1585 -48.8432 256° West 442 509 36,000  Level FlightAware Transoceanic
11:36AM 59.1277 -49.0754 255° West 442 509 36,000  Level FlightAware Transoceanic
11:37AM 59.0964 -49.3072 255° West 442 509 36,000  Level FlightAware Transoceanic
11:38AM 59.0647 -49.5386 255° West 442 509 36,000  Level FlightAware Transoceanic
11:39AM 59.0325 -49.7695 255° West 442 509 36,000  Level FlightAware Transoceanic
11:40AM 59.0000 -50.0001 255° West  Level FlightAware Approximate
11:41AM 58.9329 -50.2002 253° West  Level Estimated
11:42AM 58.9000 -50.4299 255° West  Level FlightAware Approximate
11:43AM 58.8668 -50.6592 254° West  Level FlightAware Approximate
11:43AM 59.0000 -50.0000 254° West 432 497 36,000  Level ETMS Enhanced Traffic Management System
11:43AM 59.0000 -50.0000 254° West 432 497 36,000  Level ETMS Enhanced Traffic Management System
11:44AM 58.8331 -50.8881 254° West  Level FlightAware Approximate
11:45AM 58.7991 -51.1166 254° West  Level FlightAware Approximate
11:46AM 58.7646 -51.3445 254° West  Level FlightAware Approximate
11:47AM 58.7298 -51.5720 254° West  Level FlightAware Approximate
11:48AM 58.6946 -51.7986 253° West  Level FlightAware Approximate
11:49AM 58.7158 -51.7741 252° West 432 497 36,000  Level FlightAware Transoceanic
11:50AM 58.6786 -51.9938 252° West 432 497 36,000  Level FlightAware Transoceanic
11:51AM 58.6410 -52.2130 252° West 432 497 36,000  Level FlightAware Transoceanic
11:52AM 58.6030 -52.4318 251° West 432 497 36,000  Level FlightAware Transoceanic
11:53AM 58.5647 -52.6500 251° West 432 497 36,000  Level FlightAware Transoceanic
11:54AM 58.5260 -52.8678 251° West 432 497 36,000  Level FlightAware Transoceanic
11:55AM 58.4869 -53.0851 251° West 432 497 36,000  Level FlightAware Transoceanic
11:56AM 58.4474 -53.3019 251° West 432 497 36,000  Level FlightAware Transoceanic
11:57AM 58.4076 -53.5183 251° West 432 497 36,000  Level FlightAware Transoceanic
11:58AM 58.3675 -53.7341 250° West 432 497 36,000  Level FlightAware Transoceanic
11:59AM 58.3269 -53.9495 250° West 432 497 36,000  Level FlightAware Transoceanic
12:00PM 58.2860 -54.1643 250° West 432 497 36,000  Level FlightAware Transoceanic
12:01PM 58.2448 -54.3787 250° West 432 497 36,000  Level FlightAware Transoceanic
12:02PM 58.2032 -54.5925 250° West 432 497 36,000  Level FlightAware Transoceanic
12:03PM 58.1612 -54.8059 249° West 432 497 36,000  Level FlightAware Transoceanic
12:04PM 58.1189 -55.0187 249° West 432 497 36,000  Level FlightAware Transoceanic
12:05PM 58.0762 -55.2311 249° West 432 497 36,000  Level FlightAware Transoceanic
12:05PM 58.1167 -54.8667 248° West 390 449 36,000  Level Gander Center
12:06PM 58.0332 -55.4429 249° West 432 497 36,000  Level FlightAware Transoceanic
12:06PM 58.0833 -55.0667 253° West 420 483 36,000  Level Gander Center
12:07PM 57.9898 -55.6542 249° West 432 497 36,000  Level FlightAware Transoceanic
12:07PM 58.0500 -55.3000 255° West 410 472 36,000  Level Gander Center
12:08PM 57.9460 -55.8650 249° West 432 497 36,000  Level FlightAware Transoceanic
12:08PM 58.0167 -55.4833 251° West 420 483 36,000  Level Gander Center
12:09PM 57.9020 -56.0753 248° West 432 497 36,000  Level FlightAware Transoceanic
12:09PM 57.9833 -55.6167 245° Southwest 430 495 36,000  Level Gander Center
12:10PM 57.8575 -56.2851 248° West 432 497 36,000  Level FlightAware Transoceanic
12:10PM 57.9333 -55.8167 245° Southwest 420 483 36,000  Level Gander Center
12:11PM 57.9000 -56.0333 254° West 420 483 36,000  Level Gander Center
12:12PM 57.8333 -56.2333 238° Southwest 420 483 36,000  Level Gander Center
12:13PM 57.8167 -56.4333 261° West 420 483 36,000  Level Gander Center
12:14PM 57.7667 -56.6500 247° West 420 483 36,000  Level Gander Center
12:15PM 57.7167 -56.8500 245° Southwest 430 495 36,000  Level Gander Center
12:16PM 57.6500 -57.1000 244° Southwest 430 495 36,000  Level Gander Center
12:17PM 57.6333 -57.2333 257° West 430 495 36,000  Level Gander Center
12:18PM 57.5833 -57.4500 247° West 430 495 36,000  Level Gander Center
12:19PM 57.5333 -57.6500 245° Southwest 430 495 36,000  Level Gander Center
12:20PM 57.4833 -57.9333 252° West 430 495 36,000  Level Gander Center
12:21PM 57.4333 -58.1167 243° Southwest 430 495 36,000  Level Gander Center
12:22PM 57.4000 -58.2500 245° Southwest 420 483 36,000  Level Gander Center
12:23PM 57.3500 -58.4667 247° West 430 495 36,000  Level Gander Center
12:24PM 57.3167 -58.6500 251° West 430 495 36,000  Level Gander Center
12:25PM 57.2667 -58.8500 245° Southwest 430 495 36,000  Level Gander Center
12:26PM 57.2167 -59.0667 247° West 430 495 36,000  Level Gander Center
12:27PM 57.1333 -59.2167 224° Southwest 430 495 36,000  Level Gander Center
12:28PM 57.0167 -59.4500 227° Southwest 430 495 36,000  Level Gander Center
12:29PM 56.9333 -59.6333 230° Southwest 430 495 36,000  Level Gander Center
12:30PM 56.8833 -59.7000 216° Southwest 410 472 36,000  Level Gander Center
12:31PM 56.7833 -59.8500 219° Southwest 430 495 36,000  Level Gander Center
12:32PM 56.7000 -60.0000 225° Southwest 430 495 36,000  Level Gander Center
12:33PM 56.6000 -60.1667 223° Southwest 430 495 36,000  Level Gander Center
12:34PM 56.5167 -60.3167 225° Southwest 430 495 36,000  Level Gander Center
12:35PM 56.4333 -60.4667 225° Southwest 440 506 36,000  Level Gander Center
12:36PM 56.3500 -60.5833 218° Southwest 430 495 36,000  Level Gander Center
12:37PM 56.2500 -60.7667 226° Southwest 430 495 36,000  Level Gander Center
12:38PM 56.1667 -60.9000 222° Southwest 430 495 36,000  Level Gander Center
12:39PM 56.0833 -61.0500 225° Southwest 440 506 36,000  Level Gander Center
12:40PM 55.9833 -61.2167 223° Southwest 440 506 36,000  Level Gander Center
12:41PM 55.8667 -61.4000 221° Southwest 440 506 36,000  Level Gander Center
12:42PM 55.7667 -61.5500 220° Southwest 440 506 36,000  Level Gander Center
12:43PM 55.6833 -61.7000 225° Southwest 440 506 36,000  Level Gander Center
12:44PM 55.6167 -61.7833 215° Southwest 440 506 36,000  Level Gander Center
12:45PM 55.5333 -61.9333 226° Southwest 440 506 36,000  Level Gander Center
12:46PM 55.4333 -62.0833 220° Southwest 450 518 36,000  Level Gander Center
12:47PM 55.3500 -62.2167 222° Southwest 450 518 36,000  Level Gander Center
12:48PM 55.2500 -62.3667 221° Southwest 450 518 36,000  Level Gander Center
12:49PM 55.1667 -62.5167 226° Southwest 450 518 36,000  Level Gander Center
12:50PM 55.0667 -62.6500 217° Southwest 450 518 36,000  Level Gander Center
12:51PM 54.9500 -62.8000 216° Southwest 450 518 36,000  Level Gander Center
12:52PM 54.8667 -62.9333 223° Southwest 450 518 36,000  Level Gander Center
12:53PM 54.7667 -63.0833 221° Southwest 450 518 36,000  Level Gander Center
12:54PM 54.6500 -63.2667 222° Southwest 450 518 36,000  Level Gander Center
12:55PM 54.5500 -63.3833 214° Southwest 450 518 36,000  Level Gander Center
12:56PM 54.4500 -63.5500 224° Southwest 450 518 36,000  Level Gander Center
12:57PM 54.3667 -63.6667 219° Southwest 450 518 36,000  Level Gander Center
12:58PM 54.2500 -63.8333 220° Southwest 450 518 36,000  Level Gander Center
12:59PM 54.1667 -63.9333 215° Southwest 450 518 36,000  Level Gander Center
01:00PM 54.0667 -64.1000 224° Southwest 450 518 36,000  Level Gander Center
01:01PM 53.9833 -64.2167 219° Southwest 450 518 36,000  Level Gander Center
01:02PM 53.8833 -64.3667 222° Southwest 460 529 36,000  Level Gander Center
01:03PM 53.7667 -64.5000 214° Southwest 450 518 36,000  Level Gander Center
01:04PM 53.6667 -64.6333 218° Southwest 450 518 36,000  Level Gander Center
01:05PM 53.5833 -64.7667 224° Southwest 450 518 36,000  Level Gander Center
01:06PM 53.5000 -64.8833 220° Southwest 450 518 36,000  Level Gander Center
01:07PM 53.3833 -65.0333 218° Southwest 460 529 36,000  Level Gander Center
01:09PM 53.2167 -65.2667 220° Southwest 450 518 36,000  Level Moncton Center
01:10PM 53.1167 -65.3667 211° Southwest 450 518 36,000  Level Moncton Center
01:11PM 53.0167 -65.5167 222° Southwest 460 529 36,000  Level Moncton Center
01:12PM 52.9167 -65.6500 219° Southwest 460 529 36,000  Level Moncton Center
01:13PM 52.8333 -65.7833 224° Southwest 460 529 36,000  Level Moncton Center
01:14PM 52.7167 -65.9167 215° Southwest 460 529 36,000  Level Moncton Center
01:15PM 52.6333 -66.0500 224° Southwest 460 529 36,000  Level Moncton Center
01:16PM 52.5167 -66.1833 215° Southwest 460 529 36,000  Level Moncton Center
01:17PM 52.4167 -66.2833 211° Southwest 460 529 36,000  Level Moncton Center
01:18PM 52.3167 -66.4167 219° Southwest 460 529 36,000  Level Moncton Center
01:19PM 52.2167 -66.5500 219° Southwest 460 529 36,000  Level Moncton Center
01:20PM 52.1167 -66.6500 212° Southwest 460 529 36,000  Level Moncton Center
01:21PM 52.0167 -66.7833 219° Southwest 450 518 36,000  Level Moncton Center
01:22PM 51.9000 -66.9167 215° Southwest 450 518 36,000  Level Moncton Center
01:23PM 51.8000 -67.0500 220° Southwest 450 518 36,000  Level Moncton Center
01:24PM 51.7167 -67.1833 225° Southwest 450 518 36,000  Level Moncton Center
01:25PM 51.6167 -67.3000 216° Southwest 450 518 36,000  Level Moncton Center
01:26PM 51.5167 -67.4167 216° Southwest 450 518 36,000  Level Moncton Center
01:27PM 51.4000 -67.5333 212° Southwest 450 518 36,000  Level Moncton Center
01:28PM 51.3000 -67.6667 220° Southwest 460 529 36,000  Level Moncton Center
01:29PM 51.2000 -67.7833 216° Southwest 460 529 36,000  Level Moncton Center
01:30PM 51.1000 -67.9167 220° Southwest 460 529 36,000  Level Moncton Center
01:31PM 51.0167 -68.0167 217° Southwest 460 529 36,000  Level Moncton Center
01:32PM 50.8833 -68.1333 209° Southwest 460 529 36,000  Level Moncton Center
01:33PM 50.7500 -68.2667 212° Southwest 450 518 36,000  Level Montreal Center
01:34PM 50.6500 -68.4000 220° Southwest 450 518 36,000  Level Montreal Center
01:35PM 50.5500 -68.5167 217° Southwest 450 518 36,000  Level Montreal Center
01:36PM 50.4500 -68.6333 217° Southwest 450 518 36,000  Level Montreal Center
01:37PM 50.3500 -68.7333 213° Southwest 450 518 36,000  Level Montreal Center
01:38PM 50.2333 -68.8500 213° Southwest 450 518 36,000  Level Montreal Center
01:39PM 50.1500 -68.9833 226° Southwest 450 518 36,000  Level Montreal Center
01:40PM 50.0333 -69.1000 213° Southwest 450 518 36,000  Level Montreal Center
01:41PM 49.9333 -69.1833 208° Southwest 450 518 36,000  Level Montreal Center
01:42PM 49.8500 -69.3167 226° Southwest 440 506 36,000  Level Montreal Center
01:43PM 49.7333 -69.4333 213° Southwest 450 518 36,000  Level Montreal Center
01:44PM 49.6333 -69.5500 217° Southwest 450 518 36,000  Level Montreal Center
01:45PM 49.5333 -69.6333 208° Southwest 450 518 36,000  Level Montreal Center
01:46PM 49.4333 -69.7500 217° Southwest 450 518 36,000  Level Montreal Center
01:52PM 48.8450 -70.4210 217° Southwest 466 536 36,000  Level FlightAware
01:52PM 48.7720 -70.4750 206° Southwest 478 550 36,000  Level FlightAware
01:54PM 48.6310 -70.5550 201° Southwest 480 552 36,000 -360 Level FlightAware
01:54PM 48.5300 -70.6140 201° Southwest 486 559 35,400 -780 Descending FlightAware
01:55PM 48.4460 -70.6630 201° Southwest 492 566 35,000 -300 Descending FlightAware
01:56PM 48.3520 -70.7170 201° Southwest 491 565 35,000  Level FlightAware
01:56PM 48.2690 -70.7660 201° Southwest 492 566 35,000  Level FlightAware
01:57PM 48.1500 -70.8350 201° Southwest 499 574 35,000  Level FlightAware
01:58PM 48.0300 -70.9040 201° Southwest 504 580 35,000  Level FlightAware
01:59PM 47.9330 -70.9590 201° Southwest 506 582 35,000  Level FlightAware
02:00PM 47.8330 -71.0170 201° Southwest 505 581 35,000  Level FlightAware
02:00PM 47.7470 -71.0660 201° Southwest 505 581 35,000  Level FlightAware
02:01PM 47.6590 -71.1170 201° Southwest 504 580 35,000  Level FlightAware
02:02PM 47.5640 -71.1710 201° Southwest 504 580 35,000  Level FlightAware
02:03PM 47.4690 -71.2250 201° Southwest 506 582 35,000  Level FlightAware
02:03PM 47.3550 -71.2890 201° Southwest 507 583 35,000  Level FlightAware
02:04PM 47.2670 -71.3390 201° Southwest 508 585 35,000 -120 Level FlightAware
02:05PM 47.1710 -71.3930 201° Southwest 508 585 34,900 -420 Descending FlightAware
02:06PM 47.0720 -71.4490 201° Southwest 506 582 34,400 -780 Descending FlightAware
02:06PM 47.0010 -71.4890 201° Southwest 499 574 33,900 -900 Descending FlightAware
02:07PM 46.8870 -71.5520 201° Southwest 492 566 33,200 -720 Descending FlightAware
02:08PM 46.8140 -71.5920 201° Southwest 483 556 32,900 -780 Descending FlightAware
02:08PM 46.7270 -71.6400 201° Southwest 476 548 32,200 -960 Descending FlightAware
02:09PM 46.6320 -71.6930 201° Southwest 472 543 31,500 -1,020 Descending FlightAware
02:10PM 46.4970 -71.8100 211° Southwest 435 501 30,100 -1,080 Descending FlightAware
02:11PM 46.3960 -71.9400 222° Southwest 418 481 29,100 -960 Descending FlightAware
02:12PM 46.3470 -72.0030 222° Southwest 405 466 28,700 -1,140 Descending FlightAware
02:13PM 46.2930 -72.0730 222° Southwest 390 449 27,700 -1,620 Descending FlightAware
02:13PM 46.2330 -72.1640 226° Southwest 365 420 26,300 -1,800 Descending FlightAware
02:14PM 46.1950 -72.2280 229° Southwest 360 414 25,200 -1,980 Descending FlightAware
02:15PM 46.1400 -72.3160 228° Southwest 357 411 23,600 -2,040 Descending FlightAware
02:16PM 46.0950 -72.3860 227° Southwest 355 409 22,200 -2,040 Descending FlightAware
02:16PM 46.0470 -72.4610 227° Southwest 354 407 20,800 -1,980 Descending FlightAware
02:17PM 46.0000 -72.5340 227° Southwest 352 405 19,400 -1,980 Descending FlightAware
02:18PM 45.9560 -72.6030 227° Southwest 350 403 18,100 -2,100 Descending FlightAware
02:18PM 45.9090 -72.6780 228° Southwest 350 403 16,500 -2,040 Descending FlightAware
02:19PM 45.8650 -72.7460 227° Southwest 345 397 15,300 -1,860 Descending FlightAware
02:20PM 45.8260 -72.8070 227° Southwest 339 390 14,200 -1,620 Descending FlightAware
02:21PM 45.7630 -72.9060 228° Southwest 326 375 12,300 -1,860 Descending FlightAware
02:21PM 45.7210 -72.9790 231° Southwest 317 365 11,000 -1,980 Descending FlightAware
02:22PM 45.7090 -73.0600 258° West 302 348 10,000 -1,020 Descending FlightAware
02:23PM 45.7030 -73.1170 261° West 276 318 9,800 -720 Descending FlightAware
02:23PM 45.6930 -73.1880 259° West 254 292 9,200 -1,080 Descending FlightAware
02:24PM 45.6860 -73.2320 257° West 255 293 8,600 -1,380 Descending FlightAware
02:24PM 45.6820 -73.2520 254° West 255 293 8,300 -1,680 Descending FlightAware
02:24PM 45.6740 -73.3060 258° West 258 297 7,400 -1,680 Descending FlightAware
02:25PM 45.6620 -73.3760 256° West 261 300 6,300 -1,560 Descending FlightAware
02:26PM 45.6540 -73.4230 256° West 265 305 5,600 -1,500 Descending FlightAware
02:26PM 45.6500 -73.4440 255° West 265 305 5,300 -1,500 Descending FlightAware
02:26PM 45.6420 -73.4970 258° West 263 303 4,500 -1,500 Descending FlightAware
02:27PM 45.6310 -73.5430 251° West 261 300 3,800 -1,440 Descending FlightAware
02:27PM 45.6090 -73.5770 227° Southwest 249 287 3,200 -1,080 Descending FlightAware
02:28PM 45.5870 -73.6090 226° Southwest 228 262 2,800 -1,020 Descending FlightAware
02:28PM 45.5670 -73.6350 222° Southwest 216 249 2,300 -1,320 Descending FlightAware
02:28PM 45.5560 -73.6500 224° Southwest 203 234 1,900 -1,140 Descending FlightAware
02:29PM 45.5380 -73.6740 223° Southwest 178 205 1,500 -960 Descending FlightAware
02:29PM 45.5240 -73.6920 222° Southwest 163 188 1,100 -960 Descending FlightAware
02:30PM 45.5100 -73.7110 224° Southwest 138 159 700 -780 Descending FlightAware
02:30PM 45.4980 -73.7270 223° Southwest 138 159 400 -600 Descending FlightAware
02:31PM 45.4880 -73.7410 224° Southwest 136 157 200 -480 Descending FlightAware
02:31PM 45.4780 -73.7540 222° Southwest 139 160 -840 Descending FlightAware
02:31PM 45.4670 -73.7680 222° Southwest 70 81  Level FlightAware
02:32PM 45.4640 -73.7720 223° Southwest 31 36  Level FlightAware
02:32PM 45.4630 -73.7720 180° South 26 30  Level FlightAware
02:32PM 45.4620 -73.7730 215° Southwest 16 18  Level FlightAware
02:33PM 45.4600 -73.7730 180° South 13 15  Level FlightAware